< < Back
Terminal Aerodrome Forecast


Current Version              Previous Versions:   1  2  3  4  5  6  7  8  9  

Terminal Aerodrome Forecast

143
FTAK31 PAJN 231700
TAFAHN
TAF
PAHN 231720Z 2318/2418 12007KT P6SM -SHRA OVC015
     FM240600 09005KT P6SM VCSH BKN015 OVC040
     FM241500 VRB04KT P6SM VCSH SCT015 OVC040
      AMD LTD TO CLD VIS AND WIND=

Latest METAR

062
SAUS70 KWBC 240700
MTRAHN
METAR KAHN 240651Z AUTO 10005KT 10SM CLR 11/06 A2995 RMK AO2 SLP139
T01110056


USA.gov is the U.S. government's official web portal to all federal, state and local government web resources and services.